Time;durP1;ratioP1;P1;durP2;ratioP2;P2;SDS_P1;SDS_P2;PMS_P1;PMS_P2;Temp;Humidity;BMP_temperature;BMP_pressure;BME280_temperature;BME280_humidity;BME280_pressure;Samples;Min_cycle;Max_cycle;Signal;HPM_P1;HPM_P2
2023/08/22 00:00:10;;;;;;;15.60;11.05;;;;;;;22.57;100.00;100653.41;5608136;31;33911;-68
2023/08/22 00:03:14;;;;;;;12.40;10.75;;;;;;;22.56;100.00;100652.59;5608059;31;34562;-68
2023/08/22 00:06:17;;;;;;;12.75;10.32;;;;;;;22.55;100.00;100656.38;5607825;31;34719;-68
2023/08/22 00:09:20;;;;;;;16.37;10.43;;;;;;;22.55;100.00;100648.28;5607896;31;34622;-68
2023/08/22 00:12:23;;;;;;;11.95;10.00;;;;;;;22.54;100.00;100650.16;5608208;31;34599;-69
2023/08/22 00:15:26;;;;;;;14.05;9.80;;;;;;;22.51;100.00;100653.31;5607825;31;33886;-68
2023/08/22 00:18:29;;;;;;;11.75;9.80;;;;;;;22.48;100.00;100653.81;5607858;31;33932;-68
2023/08/22 00:21:31;;;;;;;13.60;9.77;;;;;;;22.61;100.00;100652.69;5607023;31;33808;-68
2023/08/22 00:24:35;;;;;;;13.07;9.95;;;;;;;22.56;100.00;100652.59;5607761;31;33799;-68
2023/08/22 00:27:38;;;;;;;14.05;9.60;;;;;;;22.50;100.00;100649.00;5607859;31;33855;-68
2023/08/22 00:30:41;;;;;;;11.68;9.57;;;;;;;22.42;100.00;100654.75;5607658;31;34001;-68
2023/08/22 00:33:44;;;;;;;13.62;9.88;;;;;;;22.35;100.00;100654.09;5609494;31;33927;-68
2023/08/22 00:36:47;;;;;;;12.52;9.93;;;;;;;22.32;100.00;100649.12;5610472;31;34028;-68
2023/08/22 00:39:50;;;;;;;12.65;9.60;;;;;;;22.41;100.00;100646.91;5610136;31;35025;-69
2023/08/22 00:42:52;;;;;;;14.07;10.57;;;;;;;22.44;100.00;100649.94;5610268;31;35342;-68
2023/08/22 00:45:55;;;;;;;12.02;9.85;;;;;;;22.39;100.00;100652.53;5610017;31;33845;-69
2023/08/22 00:48:58;;;;;;;11.95;10.35;;;;;;;22.31;100.00;100660.19;5610078;31;33778;-69
2023/08/22 00:52:03;;;;;;;12.25;9.77;;;;;;;22.20;100.00;100661.84;5610130;31;35325;-68
2023/08/22 00:55:07;;;;;;;10.68;9.57;;;;;;;22.15;100.00;100669.84;5610035;31;33917;-69
2023/08/22 00:58:10;;;;;;;15.20;9.77;;;;;;;22.18;100.00;100663.97;5609974;31;33873;-69
2023/08/22 01:01:14;;;;;;;12.18;9.73;;;;;;;22.20;100.00;100652.94;5610296;31;34504;-68
2023/08/22 01:04:19;;;;;;;10.75;9.70;;;;;;;22.30;100.00;100653.97;5609957;31;34627;-68
2023/08/22 01:07:38;;;;;;;12.45;9.50;;;;;;;22.16;100.00;100655.28;5609691;31;33975;-68
2023/08/22 01:10:46;;;;;;;12.75;9.93;;;;;;;22.07;100.00;100651.31;5609862;31;34549;-68
2023/08/22 01:13:54;;;;;;;11.55;9.68;;;;;;;21.98;100.00;100656.22;5609845;31;34668;-68
2023/08/22 01:16:58;;;;;;;14.23;9.77;;;;;;;21.93;100.00;100652.56;5609800;31;34194;-68
2023/08/22 01:20:08;;;;;;;12.02;9.88;;;;;;;21.86;100.00;100660.78;5609537;31;33833;-68
2023/08/22 01:23:11;;;;;;;11.07;9.88;;;;;;;21.83;100.00;100661.28;5609737;31;35346;-68
2023/08/22 01:26:15;;;;;;;13.52;9.88;;;;;;;21.79;100.00;100659.25;5609790;31;34574;-68
2023/08/22 01:29:51;;;;;;;13.00;9.90;;;;;;;21.75;100.00;100652.66;5610080;31;33876;-68
2023/08/22 01:32:57;;;;;;;13.07;9.88;;;;;;;21.72;100.00;100645.06;5607917;31;33888;-68
2023/08/22 01:36:02;;;;;;;12.25;10.40;;;;;;;21.67;100.00;100643.06;5609630;31;34631;-68
2023/08/22 01:39:07;;;;;;;14.05;10.45;;;;;;;21.66;100.00;100653.03;5610119;31;34113;-68
2023/08/22 01:42:11;;;;;;;10.98;9.70;;;;;;;21.63;100.00;100649.97;5608846;31;33774;-68
2023/08/22 01:45:14;;;;;;;12.07;9.73;;;;;;;21.62;100.00;100649.16;5609442;31;34873;-69
2023/08/22 01:48:17;;;;;;;13.68;10.48;;;;;;;21.59;100.00;100652.31;5609421;31;34859;-68
2023/08/22 01:51:20;;;;;;;13.20;10.38;;;;;;;21.56;100.00;100647.37;5609439;31;34582;-68
2023/08/22 01:54:23;;;;;;;11.93;10.68;;;;;;;21.58;100.00;100649.84;5609456;31;33918;-69
2023/08/22 01:57:26;;;;;;;14.77;10.35;;;;;;;21.58;100.00;100653.38;5609399;31;34745;-68
2023/08/22 02:00:29;;;;;;;17.25;11.60;;;;;;;21.72;100.00;100653.97;5609487;31;34639;-69
2023/08/22 02:03:32;;;;;;;15.38;10.75;;;;;;;21.73;100.00;100652.94;5609385;31;33835;-68
2023/08/22 02:06:35;;;;;;;13.02;11.68;;;;;;;21.72;100.00;100651.28;5609305;31;33948;-69
2023/08/22 02:09:38;;;;;;;15.25;10.98;;;;;;;21.64;100.00;100652.44;5609253;31;33920;-69
2023/08/22 02:12:40;;;;;;;16.50;11.10;;;;;;;21.62;100.00;100649.16;5609299;31;33818;-69
2023/08/22 02:15:43;;;;;;;14.98;11.35;;;;;;;21.58;100.00;100650.69;5609242;31;34580;-69
2023/08/22 02:18:47;;;;;;;12.88;11.20;;;;;;;21.60;100.00;100645.84;5609543;31;33943;-69
2023/08/22 02:21:49;;;;;;;12.48;11.07;;;;;;;21.62;100.00;100649.16;5609279;31;33851;-69
2023/08/22 02:24:52;;;;;;;13.27;10.85;;;;;;;21.65;100.00;100648.69;5609123;31;34549;-69
2023/08/22 02:27:55;;;;;;;12.07;10.85;;;;;;;21.60;100.00;100637.75;5609168;31;33977;-68
2023/08/22 02:30:58;;;;;;;14.82;11.12;;;;;;;21.49;100.00;100641.28;5609203;31;33782;-69
2023/08/22 02:34:02;;;;;;;13.27;10.70;;;;;;;21.42;100.00;100643.25;5609319;31;32070;-68
2023/08/22 02:37:05;;;;;;;12.30;10.15;;;;;;;21.39;100.00;100638.34;5609052;31;33845;-68
2023/08/22 02:40:11;;;;;;;15.68;10.57;;;;;;;21.34;100.00;100649.00;5609060;31;33850;-69
2023/08/22 02:43:14;;;;;;;12.45;10.73;;;;;;;21.32;100.00;100640.31;5608310;31;33932;-69
2023/08/22 02:46:16;;;;;;;11.48;10.30;;;;;;;21.28;100.00;100643.69;5608916;31;33846;-68
2023/08/22 02:49:19;;;;;;;12.93;10.30;;;;;;;21.24;100.00;100644.16;5608447;31;34064;-69
2023/08/22 02:52:22;;;;;;;11.20;10.02;;;;;;;21.33;100.00;100641.13;5608981;31;33899;-68
2023/08/22 02:55:25;;;;;;;13.73;10.45;;;;;;;21.40;100.00;100650.75;5607980;31;33906;-69
2023/08/22 02:58:28;;;;;;;14.32;11.00;;;;;;;21.60;100.00;100653.94;5608917;31;33869;-68
2023/08/22 03:01:31;;;;;;;15.57;11.40;;;;;;;21.52;100.00;100653.47;5609209;31;34627;-69
2023/08/22 03:04:37;;;;;;;13.18;10.73;;;;;;;21.42;100.00;100650.53;5608850;31;33807;-69
2023/08/22 03:07:40;;;;;;;12.40;11.10;;;;;;;21.33;100.00;100651.91;5608666;31;33925;-68
2023/08/22 03:10:45;;;;;;;14.45;11.05;;;;;;;21.25;100.00;100661.19;5608853;31;34600;-69
2023/08/22 03:13:47;;;;;;;12.02;10.23;;;;;;;21.21;100.00;100660.81;5608866;31;33877;-68
2023/08/22 03:16:52;;;;;;;12.73;10.88;;;;;;;21.18;100.00;100660.44;5608792;31;33916;-69
2023/08/22 03:19:55;;;;;;;12.10;10.82;;;;;;;21.23;100.00;100657.87;5607882;31;33924;-69
2023/08/22 03:22:57;;;;;;;12.10;10.90;;;;;;;21.15;100.00;100655.53;5609026;31;33880;-69
2023/08/22 03:26:10;;;;;;;13.18;10.65;;;;;;;21.13;100.00;100658.44;5608990;31;34700;-69
2023/08/22 03:29:14;;;;;;;16.60;11.38;;;;;;;21.13;100.00;100661.13;5608378;31;35005;-69
2023/08/22 03:32:17;;;;;;;15.70;11.00;;;;;;;21.05;100.00;100661.44;5607818;31;34590;-69
2023/08/22 03:35:20;;;;;;;14.15;11.20;;;;;;;21.01;100.00;100657.53;5608593;31;34346;-69
2023/08/22 03:38:24;;;;;;;12.40;11.07;;;;;;;20.97;100.00;100661.75;5608449;31;35395;-68
2023/08/22 03:41:27;;;;;;;16.12;11.15;;;;;;;20.95;100.00;100655.78;5608727;31;34064;-68
2023/08/22 03:44:31;;;;;;;14.10;11.60;;;;;;;20.98;100.00;100649.91;5608383;31;33907;-69
2023/08/22 03:47:33;;;;;;;13.48;11.45;;;;;;;20.98;100.00;100658.00;5608265;31;34663;-69
2023/08/22 03:50:41;;;;;;;20.45;11.52;;;;;;;20.95;100.00;100658.47;5608332;31;33849;-69
2023/08/22 03:53:44;;;;;;;13.73;11.80;;;;;;;20.95;100.00;100657.66;5608536;31;34535;-69
2023/08/22 03:56:47;;;;;;;14.13;11.88;;;;;;;20.95;100.00;100657.66;5608180;31;33994;-68
2023/08/22 03:59:49;;;;;;;14.90;11.73;;;;;;;20.95;100.00;100657.66;5608233;31;33830;-69
2023/08/22 04:02:57;;;;;;;13.65;12.05;;;;;;;20.98;100.00;100662.56;5608346;31;35019;-69
2023/08/22 04:06:00;;;;;;;13.90;12.40;;;;;;;21.03;100.00;100654.63;5610551;31;34593;-69
2023/08/22 04:09:03;;;;;;;12.60;11.30;;;;;;;21.07;100.00;100658.50;5614438;31;34092;-68
2023/08/22 04:12:07;;;;;;;17.67;12.57;;;;;;;21.10;100.00;100650.78;5614268;31;34720;-69
2023/08/22 04:15:11;;;;;;;15.98;11.90;;;;;;;21.19;100.00;100657.53;5614504;31;34631;-69
2023/08/22 04:18:14;;;;;;;14.30;11.70;;;;;;;21.28;100.00;100657.19;5614677;31;34698;-69
2023/08/22 04:21:17;;;;;;;12.68;11.25;;;;;;;21.20;100.00;100659.16;5613944;31;33844;-69
2023/08/22 04:24:20;;;;;;;14.85;11.45;;;;;;;21.18;100.00;100657.75;5614308;31;34673;-69
2023/08/22 04:27:26;;;;;;;15.25;11.48;;;;;;;21.30;100.00;100657.78;5614311;31;34552;-69
2023/08/22 04:30:29;;;;;;;18.83;11.88;;;;;;;21.32;100.00;100661.06;5614515;31;33834;-68
2023/08/22 04:33:32;;;;;;;19.75;12.05;;;;;;;21.47;100.00;100662.28;5614264;31;33878;-68
2023/08/22 04:36:35;;;;;;;14.87;11.32;;;;;;;21.50;100.00;100664.50;5614390;31;33818;-69
2023/08/22 04:39:38;;;;;;;15.55;10.48;;;;;;;21.54;100.00;100662.97;5613861;31;34023;-69
2023/08/22 04:42:42;;;;;;;18.87;11.07;;;;;;;21.59;100.00;100671.19;5613377;31;34598;-69
2023/08/22 04:45:45;;;;;;;13.38;10.35;;;;;;;21.68;100.00;100669.84;5614004;31;34017;-69
2023/08/22 04:48:48;;;;;;;15.20;10.50;;;;;;;21.74;100.00;100676.16;5613631;31;34626;-68
2023/08/22 04:51:50;;;;;;;15.30;10.30;;;;;;;21.94;100.00;100683.94;5613738;31;33982;-68
2023/08/22 04:54:55;;;;;;;16.50;10.65;;;;;;;22.02;100.00;100684.44;5614075;31;33975;-68
2023/08/22 04:57:58;;;;;;;19.77;10.77;;;;;;;22.06;100.00;100687.47;5612857;31;34021;-68
2023/08/22 05:01:01;;;;;;;16.50;10.77;;;;;;;22.07;100.00;100691.84;5613149;31;33886;-68
2023/08/22 05:04:04;;;;;;;15.13;10.35;;;;;;;22.12;100.00;100697.34;5613493;31;34754;-68
2023/08/22 05:07:07;;;;;;;18.33;11.00;;;;;;;22.20;100.00;100688.06;5613281;31;34729;-68
2023/08/22 05:10:09;;;;;;;18.05;11.20;;;;;;;22.35;100.00;100697.34;5613486;31;34476;-68
2023/08/22 05:13:12;;;;;;;15.30;10.93;;;;;;;22.38;100.00;100691.44;5613156;31;35300;-68
2023/08/22 05:16:15;;;;;;;13.57;10.48;;;;;;;22.47;100.00;100703.53;5613198;31;34457;-69
2023/08/22 05:19:19;;;;;;;12.73;10.45;;;;;;;22.65;100.00;100701.75;5609996;31;34703;-68
2023/08/22 05:22:22;;;;;;;17.58;10.73;;;;;;;22.71;100.00;100701.63;5609711;31;33815;-69
2023/08/22 05:25:25;;;;;;;14.80;10.57;;;;;;;22.77;100.00;100708.78;5609823;31;34561;-68
2023/08/22 05:28:28;;;;;;;16.67;11.05;;;;;;;22.83;100.00;100710.53;5609597;31;33859;-68
2023/08/22 05:31:32;;;;;;;11.65;9.85;;;;;;;22.94;100.00;100711.56;5608985;31;34241;-69
2023/08/22 05:34:35;;;;;;;16.12;9.50;;;;;;;23.02;100.00;100718.47;5609272;31;34000;-68
2023/08/22 05:37:38;;;;;;;15.55;9.68;;;;;;;23.10;100.00;100708.06;5609526;31;34015;-68
2023/08/22 05:40:43;;;;;;;12.02;9.80;;;;;;;23.08;100.00;100710.22;5609310;31;33935;-68
2023/08/22 05:43:46;;;;;;;15.63;9.88;;;;;;;23.17;100.00;100714.19;5609404;31;33846;-68
2023/08/22 05:46:49;;;;;;;13.68;9.77;;;;;;;23.36;100.00;100710.19;5609205;31;33911;-68
2023/08/22 05:49:53;;;;;;;15.10;10.05;;;;;;;23.33;100.00;100713.38;5609048;31;35250;-69
2023/08/22 05:52:57;;;;;;;13.60;9.60;;;;;;;23.52;100.00;100716.75;5608884;31;33955;-69
2023/08/22 05:56:00;;;;;;;10.63;9.00;;;;;;;23.80;100.00;100713.97;5609261;31;33875;-68
2023/08/22 05:59:03;;;;;;;14.95;9.00;;;;;;;23.84;100.00;100722.41;5609382;31;34362;-69
2023/08/22 06:02:07;;;;;;;15.80;9.65;;;;;;;23.70;100.00;100719.22;5609311;31;33911;-68
2023/08/22 06:05:10;;;;;;;13.55;8.80;;;;;;;23.95;100.00;100715.25;5609253;31;33941;-69
2023/08/22 06:08:13;;;;;;;16.30;9.38;;;;;;;24.22;100.00;100722.47;5609632;31;33961;-68
2023/08/22 06:11:15;;;;;;;13.48;9.25;;;;;;;24.23;100.00;100732.28;5609142;31;34169;-68
2023/08/22 06:14:18;;;;;;;14.20;9.40;;;;;;;24.30;100.00;100728.56;5609299;31;33789;-68
2023/08/22 06:17:21;;;;;;;14.60;9.32;;;;;;;24.37;100.00;100734.63;5608923;31;34549;-69
2023/08/22 06:20:24;;;;;;;12.25;9.27;;;;;;;24.61;100.00;100723.28;5609058;31;33992;-69
2023/08/22 06:23:27;;;;;;;12.13;9.32;;;;;;;24.63;100.00;100718.44;5608165;31;33825;-69
2023/08/22 06:26:31;;;;;;;14.68;9.27;;;;;;;24.62;100.00;100718.69;5609424;31;33913;-69
2023/08/22 06:29:33;;;;;;;13.90;9.57;;;;;;;24.91;100.00;100717.47;5608425;31;34650;-68
2023/08/22 06:32:36;;;;;;;17.00;9.70;;;;;;;25.06;100.00;100719.53;5609504;31;34576;-69
2023/08/22 06:35:39;;;;;;;11.38;8.90;;;;;;;25.26;100.00;100727.06;5608953;31;33978;-69
2023/08/22 06:38:42;;;;;;;18.08;9.98;;;;;;;25.23;100.00;100722.94;5609025;31;34652;-69
2023/08/22 06:41:45;;;;;;;16.17;9.82;;;;;;;25.33;100.00;100724.94;5608862;31;34062;-69
2023/08/22 06:44:47;;;;;;;16.95;8.68;;;;;;;25.68;100.00;100722.59;5608906;31;33832;-69
2023/08/22 06:47:51;;;;;;;17.15;8.95;;;;;;;26.03;100.00;100724.78;5607913;31;33859;-69
2023/08/22 06:50:53;;;;;;;12.37;8.55;;;;;;;26.14;100.00;100726.47;5609240;31;33798;-69
2023/08/22 06:53:56;;;;;;;14.87;8.05;;;;;;;26.43;100.00;100716.09;5608965;31;34052;-69
2023/08/22 06:56:59;;;;;;;17.83;8.55;;;;;;;26.69;100.00;100728.72;5608630;31;34060;-69
2023/08/22 07:00:13;;;;;;;12.70;7.75;;;;;;;27.21;100.00;100725.91;5608100;31;33942;-69
2023/08/22 07:03:15;;;;;;;13.00;8.10;;;;;;;27.93;100.00;100729.56;5608716;31;33937;-69
2023/08/22 07:06:19;;;;;;;13.95;8.52;;;;;;;28.47;100.00;100733.28;5608751;31;34017;-70
2023/08/22 07:09:21;;;;;;;10.57;7.72;;;;;;;28.89;100.00;100732.91;5608641;31;33821;-69
2023/08/22 07:12:24;;;;;;;10.75;8.10;;;;;;;29.03;99.89;100729.56;5607583;31;34732;-69
2023/08/22 07:15:28;;;;;;;14.43;7.95;;;;;;;29.92;87.18;100734.69;5608679;31;34134;-70
2023/08/22 07:18:31;;;;;;;11.45;7.55;;;;;;;30.34;79.26;100728.56;5608460;31;34618;-70
2023/08/22 07:21:34;;;;;;;13.93;7.70;;;;;;;31.37;72.45;100737.97;5608593;31;32214;-70
2023/08/22 07:24:36;;;;;;;15.43;7.47;;;;;;;31.80;71.47;100736.75;5608788;31;33837;-70
2023/08/22 07:27:39;;;;;;;10.55;6.87;;;;;;;32.56;64.86;100740.03;5608130;31;34727;-71
2023/08/22 07:30:46;;;;;;;9.52;7.05;;;;;;;32.99;61.27;100737.78;5607854;31;34164;-70
2023/08/22 07:33:49;;;;;;;11.95;7.25;;;;;;;33.01;59.41;100730.06;5608363;31;33777;-70
2023/08/22 07:36:52;;;;;;;8.02;6.72;;;;;;;32.63;62.04;100726.72;5608189;31;34773;-70
2023/08/22 07:39:56;;;;;;;9.55;6.47;;;;;;;33.33;61.06;100735.41;5607222;31;33979;-70
2023/08/22 07:43:03;;;;;;;11.68;6.80;;;;;;;34.08;57.86;100734.66;5608292;31;33861;-69
2023/08/22 07:46:06;;;;;;;10.75;6.72;;;;;;;34.28;54.38;100727.78;5607187;31;33952;-69
2023/08/22 07:49:09;;;;;;;9.98;6.90;;;;;;;33.74;58.25;100727.00;5608098;31;33895;-69
2023/08/22 07:52:12;;;;;;;15.88;7.20;;;;;;;34.35;55.41;100731.72;5608276;31;35390;-70
2023/08/22 07:55:15;;;;;;;15.35;7.07;;;;;;;35.10;55.40;100725.13;5607985;31;34047;-69
2023/08/22 07:58:17;;;;;;;16.00;6.95;;;;;;;36.04;50.83;100726.22;5607628;31;33793;-70
2023/08/22 08:01:20;;;;;;;12.82;6.93;;;;;;;36.62;47.76;100722.78;5607840;31;34590;-69
2023/08/22 08:04:23;;;;;;;10.10;7.07;;;;;;;36.43;49.06;100716.84;5607966;31;33841;-69
2023/08/22 08:07:27;;;;;;;9.73;6.85;;;;;;;36.93;47.87;100722.44;5607838;31;34546;-70
2023/08/22 08:10:32;;;;;;;9.18;6.70;;;;;;;37.19;47.86;100725.84;5608153;31;34002;-70
2023/08/22 08:13:35;;;;;;;16.08;7.40;;;;;;;37.63;46.14;100729.06;5607156;31;33899;-70
2023/08/22 08:16:38;;;;;;;9.93;7.18;;;;;;;37.02;44.95;100717.66;5607555;31;33948;-70
2023/08/22 08:19:43;;;;;;;14.50;7.25;;;;;;;36.88;44.30;100715.16;5608086;31;33556;-70
2023/08/22 08:22:46;;;;;;;8.43;6.65;;;;;;;37.71;41.96;100726.22;5607741;31;33757;-70
2023/08/22 08:25:49;;;;;;;10.85;7.00;;;;;;;38.36;41.18;100723.69;5607208;31;33844;-70
2023/08/22 08:28:52;;;;;;;10.70;7.03;;;;;;;38.11;43.29;100720.91;5607348;31;34261;-70
2023/08/22 08:31:58;;;;;;;7.90;6.43;;;;;;;38.76;39.88;100724.63;5607210;31;33763;-70
2023/08/22 08:35:01;;;;;;;11.93;6.87;;;;;;;38.51;41.03;100723.03;5606467;31;33750;-71
2023/08/22 08:38:04;;;;;;;10.52;6.62;;;;;;;38.23;42.43;100722.88;5606678;31;33961;-71
2023/08/22 08:41:08;;;;;;;14.60;7.28;;;;;;;39.45;39.71;100712.47;5607008;31;33973;-71
2023/08/22 08:44:13;;;;;;;12.05;6.78;;;;;;;40.00;39.20;100716.34;5607238;31;33902;-71
2023/08/22 08:47:17;;;;;;;11.75;6.90;;;;;;;39.47;38.74;100710.94;5607015;31;33871;-71
2023/08/22 08:50:20;;;;;;;11.02;6.28;;;;;;;39.52;39.43;100710.69;5606782;31;33778;-71
2023/08/22 08:53:24;;;;;;;12.65;7.10;;;;;;;41.27;36.34;100715.84;5609163;31;33776;-71
2023/08/22 08:56:27;;;;;;;13.40;6.45;;;;;;;40.43;36.88;100707.16;5609822;31;34625;-72
2023/08/22 08:59:30;;;;;;;12.30;6.37;;;;;;;41.10;37.78;100708.75;5608641;31;33814;-71
2023/08/22 09:02:33;;;;;;;18.27;7.30;;;;;;;40.86;36.76;100709.78;5609386;31;33864;-71
2023/08/22 09:05:38;;;;;;;10.60;6.57;;;;;;;42.39;34.86;100705.22;5609478;31;34536;-71
2023/08/22 09:09:01;;;;;;;10.52;6.50;;;;;;;41.10;35.48;100701.19;5609559;31;34694;-71
2023/08/22 09:12:07;;;;;;;9.82;6.45;;;;;;;40.15;35.19;100699.69;5608599;31;33728;-72
2023/08/22 09:15:18;;;;;;;11.05;6.70;;;;;;;40.66;35.58;100685.88;5609678;31;33732;-71
2023/08/22 09:18:20;;;;;;;9.55;6.12;;;;;;;40.75;34.52;100689.25;5609787;31;33747;-70
2023/08/22 09:21:23;;;;;;;13.52;6.30;;;;;;;41.07;32.87;100682.44;5609461;31;33802;-71
2023/08/22 09:24:29;;;;;;;10.77;5.80;;;;;;;41.43;33.15;100678.38;5609455;31;33863;-71
2023/08/22 09:27:32;;;;;;;20.00;6.90;;;;;;;39.02;36.71;100668.78;5609481;31;33938;-70
2023/08/22 09:30:35;;;;;;;12.93;6.15;;;;;;;41.28;33.31;100675.69;5609109;31;33814;-71
2023/08/22 09:33:47;;;;;;;9.32;6.62;;;;;;;42.40;32.28;100684.53;5609740;31;34519;-70
2023/08/22 09:36:52;;;;;;;10.95;6.18;;;;;;;41.93;33.04;100663.41;5595958;31;34500;-70
2023/08/22 09:39:55;;;;;;;11.05;5.80;;;;;;;42.98;31.48;100668.22;5609396;31;34485;-71
2023/08/22 09:43:00;;;;;;;10.95;6.40;;;;;;;42.62;32.63;100668.91;5608784;31;34877;-70
2023/08/22 09:46:03;;;;;;;9.32;5.70;;;;;;;41.38;33.32;100658.38;5609307;31;34452;-69
2023/08/22 09:49:11;;;;;;;10.30;5.90;;;;;;;43.51;29.04;100662.50;5608788;31;34946;-70
2023/08/22 09:52:14;;;;;;;6.93;5.32;;;;;;;44.52;28.89;100659.00;5609190;31;34228;-70
2023/08/22 09:55:18;;;;;;;7.80;5.32;;;;;;;43.60;29.49;100655.41;5608817;31;33821;-71
2023/08/22 09:58:22;;;;;;;11.10;5.60;;;;;;;43.85;29.16;100652.03;5609266;31;34466;-70
2023/08/22 10:01:27;;;;;;;15.07;6.05;;;;;;;43.07;30.63;100651.19;5609524;31;33566;-70
2023/08/22 10:04:33;;;;;;;8.70;5.57;;;;;;;41.69;31.91;100641.47;5608397;31;34130;-70
2023/08/22 10:07:36;;;;;;;9.73;6.57;;;;;;;38.03;37.32;100638.69;5608577;31;33341;-72
2023/08/22 10:10:41;;;;;;;17.30;7.65;;;;;;;36.90;41.32;100621.56;5609384;31;34393;-71
2023/08/22 10:13:45;;;;;;;13.20;6.57;;;;;;;35.37;44.56;100613.69;5608673;31;33642;-70
2023/08/22 10:16:48;;;;;;;9.57;6.68;;;;;;;34.88;44.17;100615.00;5609758;31;33713;-71
2023/08/22 10:19:50;;;;;;;7.10;6.40;;;;;;;34.47;45.78;100609.87;5609490;31;34258;-70
2023/08/22 10:22:53;;;;;;;7.87;6.40;;;;;;;34.38;47.22;100611.81;5608432;31;33639;-70
2023/08/22 10:25:56;;;;;;;12.63;7.18;;;;;;;34.30;46.06;100598.84;5608901;31;34927;-69
2023/08/22 10:29:18;;;;;;;12.93;6.82;;;;;;;34.13;46.80;100607.03;5609434;31;34576;-69
2023/08/22 10:32:22;;;;;;;9.27;6.90;;;;;;;34.08;47.01;100597.00;5609188;31;33552;-69
2023/08/22 10:35:25;;;;;;;9.57;6.72;;;;;;;33.85;47.61;100601.75;5609250;31;33765;-70
2023/08/22 10:38:28;;;;;;;10.77;7.03;;;;;;;33.92;47.86;100599.34;5609307;31;34813;-70
2023/08/22 10:41:54;;;;;;;9.93;6.50;;;;;;;34.51;47.28;100596.28;5608566;31;33634;-70
2023/08/22 10:44:58;;;;;;;6.35;5.45;;;;;;;37.29;39.68;100603.66;5609142;31;34350;-70
2023/08/22 10:48:11;;;;;;;7.05;5.78;;;;;;;40.36;32.80;100605.72;5609171;31;34414;-69
2023/08/22 10:51:14;;;;;;;7.55;6.05;;;;;;;41.66;31.21;100606.00;5609302;31;34316;-70
2023/08/22 10:54:18;;;;;;;7.87;5.85;;;;;;;42.48;30.78;100608.94;5608864;31;33924;-70
2023/08/22 10:57:21;;;;;;;7.50;5.07;;;;;;;44.51;27.96;100609.00;5608910;31;33752;-69
2023/08/22 11:00:25;;;;;;;9.07;5.85;;;;;;;43.80;28.60;100607.69;5609220;31;33670;-71
2023/08/22 11:03:31;;;;;;;6.57;5.40;;;;;;;44.04;28.56;100601.50;5609087;31;34208;-71
2023/08/22 11:06:37;;;;;;;7.47;5.15;;;;;;;43.37;28.42;100604.47;5595437;31;34383;-71
2023/08/22 11:09:39;;;;;;;8.73;4.97;;;;;;;42.75;29.16;100600.56;5609394;31;35033;-70
2023/08/22 11:12:46;;;;;;;9.05;4.82;;;;;;;44.59;26.32;100605.06;5609025;31;33557;-70
2023/08/22 11:15:50;;;;;;;8.52;5.10;;;;;;;45.35;25.30;100602.16;5608838;31;34266;-70
2023/08/22 11:18:53;;;;;;;8.88;4.85;;;;;;;44.44;26.50;100601.38;5609467;31;33547;-71
2023/08/22 11:21:56;;;;;;;7.68;5.30;;;;;;;44.89;26.21;100607.59;5609423;31;33518;-70
2023/08/22 11:24:59;;;;;;;9.52;5.45;;;;;;;45.17;25.49;100604.91;5608606;31;33604;-72
2023/08/22 11:28:02;;;;;;;8.52;5.12;;;;;;;46.71;24.17;100595.25;5608889;31;33517;-71
2023/08/22 11:31:05;;;;;;;9.55;5.62;;;;;;;45.74;25.67;100594.59;5608845;31;34640;-71
2023/08/22 11:34:08;;;;;;;9.95;5.00;;;;;;;46.38;24.56;100594.53;5608906;31;34336;-70
2023/08/22 11:37:11;;;;;;;9.82;5.28;;;;;;;46.12;24.46;100594.97;5608870;31;33704;-70
2023/08/22 11:40:14;;;;;;;7.28;5.37;;;;;;;46.30;24.02;100590.13;5609021;31;33523;-71
2023/08/22 11:43:18;;;;;;;11.27;5.60;;;;;;;46.17;24.96;100577.75;5608633;31;33794;-69
2023/08/22 11:46:21;;;;;;;8.07;5.10;;;;;;;46.71;23.56;100584.00;5608166;31;33571;-73
2023/08/22 11:49:40;;;;;;;10.68;5.15;;;;;;;46.95;23.31;100575.50;5607993;31;33440;-73
2023/08/22 11:52:45;;;;;;;10.50;5.18;;;;;;;47.59;24.06;100575.06;5608134;31;34624;-70
2023/08/22 11:55:55;;;;;;;8.63;5.30;;;;;;;44.69;25.60;100567.16;5608069;31;33680;-71
2023/08/22 11:58:59;;;;;;;8.55;5.15;;;;;;;44.86;25.76;100572.78;5608203;31;33593;-71
2023/08/22 12:02:01;;;;;;;10.07;5.60;;;;;;;45.10;26.35;100562.06;5608446;31;33631;-71
2023/08/22 12:05:05;;;;;;;8.38;5.50;;;;;;;45.47;25.15;100568.16;5608244;31;34327;-71
2023/08/22 12:08:10;;;;;;;10.77;5.20;;;;;;;46.57;24.91;100563.22;5608405;31;33520;-71
2023/08/22 12:11:24;;;;;;;11.55;5.28;;;;;;;47.15;24.06;100552.50;5608342;31;33632;-72
2023/08/22 12:14:27;;;;;;;6.80;4.85;;;;;;;48.11;23.32;100547.66;5608297;31;33774;-69
2023/08/22 12:17:31;;;;;;;6.68;4.55;;;;;;;45.86;22.80;100551.34;5608485;31;33594;-70
2023/08/22 12:20:34;;;;;;;12.73;4.90;;;;;;;46.76;23.57;100544.28;5607839;31;33583;-70
2023/08/22 12:23:38;;;;;;;5.70;4.72;;;;;;;45.56;23.89;100546.13;5607629;31;33751;-69
2023/08/22 12:26:40;;;;;;;8.57;5.00;;;;;;;47.50;22.14;100540.97;5607596;31;34607;-69
2023/08/22 12:29:44;;;;;;;8.05;5.35;;;;;;;45.41;23.58;100542.53;5610604;31;33575;-70
2023/08/22 12:32:47;;;;;;;9.48;5.75;;;;;;;47.70;21.64;100535.59;5610129;31;33676;-70
2023/08/22 12:35:50;;;;;;;8.68;4.62;;;;;;;48.56;21.26;100523.00;5610319;31;33641;-69
2023/08/22 12:38:52;;;;;;;10.02;4.80;;;;;;;46.38;21.94;100524.38;5610528;31;34302;-70
2023/08/22 12:41:55;;;;;;;7.35;5.00;;;;;;;47.10;22.08;100518.00;5610615;31;33641;-71
2023/08/22 12:44:58;;;;;;;6.80;4.85;;;;;;;49.87;20.12;100529.41;5610444;31;33620;-70
2023/08/22 12:48:01;;;;;;;7.50;4.87;;;;;;;50.06;19.10;100527.06;5610469;31;34439;-71
2023/08/22 12:51:03;;;;;;;7.15;4.50;;;;;;;50.03;18.90;100523.06;5610258;31;34280;-71
2023/08/22 12:54:06;;;;;;;6.65;5.20;;;;;;;49.00;19.94;100515.53;5610296;31;33531;-70
2023/08/22 12:57:09;;;;;;;8.55;5.10;;;;;;;49.08;19.98;100508.63;5610656;31;33683;-69
2023/08/22 13:00:12;;;;;;;4.70;4.18;;;;;;;49.46;19.63;100515.66;5610742;31;33664;-72
2023/08/22 13:03:14;;;;;;;6.37;4.68;;;;;;;49.19;20.02;100503.62;5610695;31;33763;-70
2023/08/22 13:06:17;;;;;;;6.45;4.20;;;;;;;51.57;17.59;100503.03;5610017;31;32987;-71
2023/08/22 13:09:21;;;;;;;5.87;4.35;;;;;;;49.69;18.31;100506.38;5610304;31;33701;-70
2023/08/22 13:12:23;;;;;;;6.37;4.35;;;;;;;47.34;21.02;100492.97;5610238;31;33779;-69
2023/08/22 13:15:26;;;;;;;8.25;4.18;;;;;;;47.32;20.42;100495.38;5609275;31;33031;-70
2023/08/22 13:18:29;;;;;;;5.15;4.35;;;;;;;47.65;19.63;100485.44;5610141;31;33850;-70
2023/08/22 13:21:32;;;;;;;8.27;4.30;;;;;;;47.15;21.00;100482.25;5610035;31;33587;-71
2023/08/22 13:24:35;;;;;;;8.15;4.80;;;;;;;47.58;20.44;100485.50;5610042;31;33722;-69
2023/08/22 13:27:39;;;;;;;5.18;4.22;;;;;;;46.60;21.12;100471.75;5610110;31;34275;-71
2023/08/22 13:30:42;;;;;;;5.72;4.68;;;;;;;46.85;21.10;100474.41;5609938;31;34598;-71
2023/08/22 13:33:45;;;;;;;7.25;4.80;;;;;;;48.93;19.46;100473.41;5610025;31;33771;-71
2023/08/22 13:36:48;;;;;;;7.85;4.82;;;;;;;46.92;21.99;100465.97;5609996;31;33691;-72
2023/08/22 13:39:50;;;;;;;7.00;4.62;;;;;;;48.85;20.10;100466.31;5608033;31;33671;-71
2023/08/22 13:42:53;;;;;;;8.20;4.90;;;;;;;47.59;20.96;100462.59;5609036;31;33714;-72
2023/08/22 13:45:56;;;;;;;6.10;4.55;;;;;;;49.01;19.67;100470.03;5610224;31;34313;-71
2023/08/22 13:48:59;;;;;;;13.55;4.93;;;;;;;50.81;18.49;100462.12;5609950;31;33186;-72
2023/08/22 13:52:02;;;;;;;8.77;4.93;;;;;;;48.63;20.67;100458.16;5609793;31;33714;-72
2023/08/22 13:55:05;;;;;;;11.75;4.82;;;;;;;48.80;20.33;100461.16;5609887;31;34171;-70
2023/08/22 13:58:08;;;;;;;7.57;4.32;;;;;;;47.24;21.85;100452.47;5609760;31;33938;-69